sensor_id;sensor_type;location;lat;lon;timestamp;temperature;humidity
60473;DHT22;46318;52.716;6.444;2022-10-23T00:01:20;11.20;99.90
60473;DHT22;46318;52.716;6.444;2022-10-23T00:03:53;11.20;99.90
60473;DHT22;46318;52.716;6.444;2022-10-23T00:06:20;11.20;99.90
60473;DHT22;46318;52.716;6.444;2022-10-23T00:08:47;11.20;99.90
60473;DHT22;46318;52.716;6.444;2022-10-23T00:11:15;11.20;99.90
60473;DHT22;46318;52.716;6.444;2022-10-23T00:13:47;11.20;99.90
60473;DHT22;46318;52.716;6.444;2022-10-23T00:16:13;11.20;99.90
60473;DHT22;46318;52.716;6.444;2022-10-23T00:18:39;11.10;99.90
60473;DHT22;46318;52.716;6.444;2022-10-23T00:21:08;11.10;99.90
60473;DHT22;46318;52.716;6.444;2022-10-23T00:23:35;11.20;99.90
60473;DHT22;46318;52.716;6.444;2022-10-23T00:26:01;11.10;99.90
60473;DHT22;46318;52.716;6.444;2022-10-23T00:28:28;11.10;99.90
60473;DHT22;46318;52.716;6.444;2022-10-23T00:30:54;11.10;99.90
60473;DHT22;46318;52.716;6.444;2022-10-23T00:33:19;11.20;99.90
60473;DHT22;46318;52.716;6.444;2022-10-23T00:35:45;11.10;99.90
60473;DHT22;46318;52.716;6.444;2022-10-23T00:38:11;11.10;99.90
60473;DHT22;46318;52.716;6.444;2022-10-23T00:40:38;11.20;99.90
60473;DHT22;46318;52.716;6.444;2022-10-23T00:43:09;11.10;99.90
60473;DHT22;46318;52.716;6.444;2022-10-23T00:45:41;11.10;99.90
60473;DHT22;46318;52.716;6.444;2022-10-23T00:48:07;11.20;99.90
60473;DHT22;46318;52.716;6.444;2022-10-23T00:50:33;11.20;99.90
60473;DHT22;46318;52.716;6.444;2022-10-23T00:53:01;11.20;99.90
60473;DHT22;46318;52.716;6.444;2022-10-23T00:55:29;11.20;99.90
60473;DHT22;46318;52.716;6.444;2022-10-23T00:57:56;11.20;99.90
60473;DHT22;46318;52.716;6.444;2022-10-23T01:00:28;11.20;99.90
60473;DHT22;46318;52.716;6.444;2022-10-23T01:03:04;11.10;99.90
60473;DHT22;46318;52.716;6.444;2022-10-23T01:05:45;11.20;99.90
60473;DHT22;46318;52.716;6.444;2022-10-23T01:08:26;11.20;99.90
60473;DHT22;46318;52.716;6.444;2022-10-23T01:11:19;11.10;99.90
60473;DHT22;46318;52.716;6.444;2022-10-23T01:14:16;11.10;99.90
60473;DHT22;46318;52.716;6.444;2022-10-23T01:17:12;11.10;99.90
60473;DHT22;46318;52.716;6.444;2022-10-23T01:29:02;11.10;99.90
60473;DHT22;46318;52.716;6.444;2022-10-23T01:31:08;11.10;99.90
60473;DHT22;46318;52.716;6.444;2022-10-23T01:33:49;11.00;99.90
60473;DHT22;46318;52.716;6.444;2022-10-23T01:36:20;11.00;99.90
60473;DHT22;46318;52.716;6.444;2022-10-23T01:38:55;11.00;99.90
60473;DHT22;46318;52.716;6.444;2022-10-23T01:44:18;11.00;99.90
60473;DHT22;46318;52.716;6.444;2022-10-23T01:46:49;11.00;99.90
60473;DHT22;46318;52.716;6.444;2022-10-23T01:49:17;10.90;99.90
60473;DHT22;46318;52.716;6.444;2022-10-23T01:51:48;11.00;99.90
60473;DHT22;46318;52.716;6.444;2022-10-23T01:54:21;10.90;99.90
60473;DHT22;46318;52.716;6.444;2022-10-23T01:56:52;10.90;99.90
60473;DHT22;46318;52.716;6.444;2022-10-23T01:59:22;10.90;99.90
60473;DHT22;46318;52.716;6.444;2022-10-23T02:01:52;10.90;99.90
60473;DHT22;46318;52.716;6.444;2022-10-23T02:04:24;10.90;99.90
60473;DHT22;46318;52.716;6.444;2022-10-23T02:06:54;10.80;99.90
60473;DHT22;46318;52.716;6.444;2022-10-23T02:09:20;10.80;99.90
60473;DHT22;46318;52.716;6.444;2022-10-23T02:11:54;10.80;99.90
60473;DHT22;46318;52.716;6.444;2022-10-23T02:23:34;10.80;99.90
60473;DHT22;46318;52.716;6.444;2022-10-23T02:28:48;10.80;99.90
60473;DHT22;46318;52.716;6.444;2022-10-23T02:31:16;10.80;99.90
60473;DHT22;46318;52.716;6.444;2022-10-23T02:33:46;10.80;99.90
60473;DHT22;46318;52.716;6.444;2022-10-23T02:36:12;10.80;99.90
60473;DHT22;46318;52.716;6.444;2022-10-23T02:38:40;10.70;99.90
60473;DHT22;46318;52.716;6.444;2022-10-23T02:44:38;10.80;99.90
60473;DHT22;46318;52.716;6.444;2022-10-23T02:58:26;10.70;99.90
60473;DHT22;46318;52.716;6.444;2022-10-23T03:00:59;10.70;99.90
60473;DHT22;46318;52.716;6.444;2022-10-23T03:03:35;10.70;99.90
60473;DHT22;46318;52.716;6.444;2022-10-23T03:06:04;10.70;99.90
60473;DHT22;46318;52.716;6.444;2022-10-23T03:08:41;10.70;99.90
60473;DHT22;46318;52.716;6.444;2022-10-23T03:11:13;10.70;99.90
60473;DHT22;46318;52.716;6.444;2022-10-23T03:13:39;10.70;99.90
60473;DHT22;46318;52.716;6.444;2022-10-23T03:16:04;10.70;99.90
60473;DHT22;46318;52.716;6.444;2022-10-23T03:18:30;10.70;99.90
60473;DHT22;46318;52.716;6.444;2022-10-23T03:20:56;10.70;99.90
60473;DHT22;46318;52.716;6.444;2022-10-23T03:23:22;10.70;99.90
60473;DHT22;46318;52.716;6.444;2022-10-23T03:25:47;10.60;99.90
60473;DHT22;46318;52.716;6.444;2022-10-23T03:28:13;10.70;99.90
60473;DHT22;46318;52.716;6.444;2022-10-23T03:30:39;10.70;99.90
60473;DHT22;46318;52.716;6.444;2022-10-23T03:33:04;10.70;99.90
60473;DHT22;46318;52.716;6.444;2022-10-23T03:35:30;10.70;99.90
60473;DHT22;46318;52.716;6.444;2022-10-23T03:37:56;10.70;99.90
60473;DHT22;46318;52.716;6.444;2022-10-23T03:40:22;10.70;99.90
60473;DHT22;46318;52.716;6.444;2022-10-23T03:42:47;10.70;99.90
60473;DHT22;46318;52.716;6.444;2022-10-23T03:45:13;10.70;99.90
60473;DHT22;46318;52.716;6.444;2022-10-23T03:47:39;10.70;99.90
60473;DHT22;46318;52.716;6.444;2022-10-23T03:50:07;10.70;99.90
60473;DHT22;46318;52.716;6.444;2022-10-23T03:52:34;10.70;99.90
60473;DHT22;46318;52.716;6.444;2022-10-23T03:55:00;10.70;99.90
60473;DHT22;46318;52.716;6.444;2022-10-23T03:57:25;10.60;99.90
60473;DHT22;46318;52.716;6.444;2022-10-23T03:59:51;10.60;99.90
60473;DHT22;46318;52.716;6.444;2022-10-23T04:02:17;10.70;99.90
60473;DHT22;46318;52.716;6.444;2022-10-23T04:04:43;10.70;99.90
60473;DHT22;46318;52.716;6.444;2022-10-23T04:07:09;10.70;99.90
60473;DHT22;46318;52.716;6.444;2022-10-23T04:09:35;10.60;99.90
60473;DHT22;46318;52.716;6.444;2022-10-23T04:12:00;10.60;99.90
60473;DHT22;46318;52.716;6.444;2022-10-23T04:14:26;10.70;99.90
60473;DHT22;46318;52.716;6.444;2022-10-23T04:16:52;10.60;99.90
60473;DHT22;46318;52.716;6.444;2022-10-23T04:19:18;10.70;99.90
60473;DHT22;46318;52.716;6.444;2022-10-23T04:21:43;10.70;99.90
60473;DHT22;46318;52.716;6.444;2022-10-23T04:24:09;10.70;99.90
60473;DHT22;46318;52.716;6.444;2022-10-23T04:26:35;10.60;99.90
60473;DHT22;46318;52.716;6.444;2022-10-23T04:29:01;10.70;99.90
60473;DHT22;46318;52.716;6.444;2022-10-23T04:31:27;10.60;99.90
60473;DHT22;46318;52.716;6.444;2022-10-23T04:33:52;10.70;99.90
60473;DHT22;46318;52.716;6.444;2022-10-23T04:36:18;10.60;99.90
60473;DHT22;46318;52.716;6.444;2022-10-23T04:38:44;10.60;99.90
60473;DHT22;46318;52.716;6.444;2022-10-23T04:41:10;10.60;99.90
60473;DHT22;46318;52.716;6.444;2022-10-23T04:43:35;10.60;99.90
60473;DHT22;46318;52.716;6.444;2022-10-23T04:46:01;10.60;99.90
60473;DHT22;46318;52.716;6.444;2022-10-23T04:48:27;10.60;99.90
60473;DHT22;46318;52.716;6.444;2022-10-23T04:51:01;10.60;99.90
60473;DHT22;46318;52.716;6.444;2022-10-23T04:53:28;10.60;99.90
60473;DHT22;46318;52.716;6.444;2022-10-23T04:55:56;10.60;99.90
60473;DHT22;46318;52.716;6.444;2022-10-23T04:58:24;10.60;99.90
60473;DHT22;46318;52.716;6.444;2022-10-23T05:00:52;10.60;99.90
60473;DHT22;46318;52.716;6.444;2022-10-23T05:03:18;10.50;99.90
60473;DHT22;46318;52.716;6.444;2022-10-23T05:05:47;10.60;99.90
60473;DHT22;46318;52.716;6.444;2022-10-23T05:08:13;10.50;99.90
60473;DHT22;46318;52.716;6.444;2022-10-23T05:10:39;10.50;99.90
60473;DHT22;46318;52.716;6.444;2022-10-23T05:13:06;10.50;99.90
60473;DHT22;46318;52.716;6.444;2022-10-23T05:15:32;10.50;99.90
60473;DHT22;46318;52.716;6.444;2022-10-23T05:18:07;10.50;99.90
60473;DHT22;46318;52.716;6.444;2022-10-23T05:20:45;10.50;99.90
60473;DHT22;46318;52.716;6.444;2022-10-23T05:23:15;10.50;99.90
60473;DHT22;46318;52.716;6.444;2022-10-23T05:25:42;10.50;99.90
60473;DHT22;46318;52.716;6.444;2022-10-23T05:28:08;10.40;99.90
60473;DHT22;46318;52.716;6.444;2022-10-23T05:30:34;10.40;99.90
60473;DHT22;46318;52.716;6.444;2022-10-23T05:33:00;10.40;99.90
60473;DHT22;46318;52.716;6.444;2022-10-23T05:35:28;10.40;99.90
60473;DHT22;46318;52.716;6.444;2022-10-23T05:37:56;10.40;99.90
60473;DHT22;46318;52.716;6.444;2022-10-23T05:40:23;10.40;99.90
60473;DHT22;46318;52.716;6.444;2022-10-23T05:42:49;10.40;99.90
60473;DHT22;46318;52.716;6.444;2022-10-23T05:45:15;10.40;99.90
60473;DHT22;46318;52.716;6.444;2022-10-23T05:47:45;10.40;99.90
60473;DHT22;46318;52.716;6.444;2022-10-23T05:50:12;10.40;99.90
60473;DHT22;46318;52.716;6.444;2022-10-23T05:52:37;10.40;99.90
60473;DHT22;46318;52.716;6.444;2022-10-23T05:55:03;10.40;99.90
60473;DHT22;46318;52.716;6.444;2022-10-23T05:57:32;10.40;99.90
60473;DHT22;46318;52.716;6.444;2022-10-23T05:59:58;10.50;99.90
60473;DHT22;46318;52.716;6.444;2022-10-23T06:02:24;10.40;99.90
60473;DHT22;46318;52.716;6.444;2022-10-23T06:04:50;10.40;99.90
60473;DHT22;46318;52.716;6.444;2022-10-23T06:07:16;10.40;99.90
60473;DHT22;46318;52.716;6.444;2022-10-23T06:09:41;10.40;99.90
60473;DHT22;46318;52.716;6.444;2022-10-23T06:12:07;10.40;99.90
60473;DHT22;46318;52.716;6.444;2022-10-23T06:14:33;10.40;99.90
60473;DHT22;46318;52.716;6.444;2022-10-23T06:16:59;10.40;99.90
60473;DHT22;46318;52.716;6.444;2022-10-23T06:19:24;10.40;99.90
60473;DHT22;46318;52.716;6.444;2022-10-23T06:21:50;10.40;99.90
60473;DHT22;46318;52.716;6.444;2022-10-23T06:24:16;10.50;99.90
60473;DHT22;46318;52.716;6.444;2022-10-23T06:26:42;10.40;99.90
60473;DHT22;46318;52.716;6.444;2022-10-23T06:29:07;10.50;99.90
60473;DHT22;46318;52.716;6.444;2022-10-23T06:31:33;10.50;99.90
60473;DHT22;46318;52.716;6.444;2022-10-23T06:33:59;10.50;99.90
60473;DHT22;46318;52.716;6.444;2022-10-23T06:36:25;10.50;99.90
60473;DHT22;46318;52.716;6.444;2022-10-23T06:38:51;10.50;99.90
60473;DHT22;46318;52.716;6.444;2022-10-23T06:41:20;10.50;99.90
60473;DHT22;46318;52.716;6.444;2022-10-23T06:43:47;10.50;99.90
60473;DHT22;46318;52.716;6.444;2022-10-23T06:46:14;10.50;99.90
60473;DHT22;46318;52.716;6.444;2022-10-23T06:48:41;10.50;99.90
60473;DHT22;46318;52.716;6.444;2022-10-23T06:51:08;10.50;99.90
60473;DHT22;46318;52.716;6.444;2022-10-23T06:53:36;10.50;99.90
60473;DHT22;46318;52.716;6.444;2022-10-23T06:56:04;10.60;99.90
60473;DHT22;46318;52.716;6.444;2022-10-23T06:58:31;10.50;99.90
60473;DHT22;46318;52.716;6.444;2022-10-23T07:01:02;10.60;99.90
60473;DHT22;46318;52.716;6.444;2022-10-23T07:03:30;10.60;99.90
60473;DHT22;46318;52.716;6.444;2022-10-23T07:05:59;10.60;99.90
60473;DHT22;46318;52.716;6.444;2022-10-23T07:08:26;10.60;99.90
60473;DHT22;46318;52.716;6.444;2022-10-23T07:10:52;10.60;99.90
60473;DHT22;46318;52.716;6.444;2022-10-23T07:13:18;10.60;99.90
60473;DHT22;46318;52.716;6.444;2022-10-23T07:15:44;10.60;99.90
60473;DHT22;46318;52.716;6.444;2022-10-23T07:18:10;10.60;99.90
60473;DHT22;46318;52.716;6.444;2022-10-23T07:20:41;10.60;99.90
60473;DHT22;46318;52.716;6.444;2022-10-23T07:23:10;10.60;99.90
60473;DHT22;46318;52.716;6.444;2022-10-23T07:25:36;10.60;99.90
60473;DHT22;46318;52.716;6.444;2022-10-23T07:28:05;10.70;99.90
60473;DHT22;46318;52.716;6.444;2022-10-23T07:30:31;10.70;99.90
60473;DHT22;46318;52.716;6.444;2022-10-23T07:32:57;10.70;99.90
60473;DHT22;46318;52.716;6.444;2022-10-23T07:35:23;10.80;99.90
60473;DHT22;46318;52.716;6.444;2022-10-23T07:37:49;10.80;99.90
60473;DHT22;46318;52.716;6.444;2022-10-23T07:40:15;10.80;99.90
60473;DHT22;46318;52.716;6.444;2022-10-23T07:42:43;10.80;99.90
60473;DHT22;46318;52.716;6.444;2022-10-23T07:45:09;10.80;99.90
60473;DHT22;46318;52.716;6.444;2022-10-23T07:47:35;10.90;99.90
60473;DHT22;46318;52.716;6.444;2022-10-23T07:50:01;10.90;99.90
60473;DHT22;46318;52.716;6.444;2022-10-23T07:52:27;10.90;99.90
60473;DHT22;46318;52.716;6.444;2022-10-23T07:54:53;10.90;99.90
60473;DHT22;46318;52.716;6.444;2022-10-23T07:57:19;11.00;99.90
60473;DHT22;46318;52.716;6.444;2022-10-23T07:59:45;11.00;99.90
60473;DHT22;46318;52.716;6.444;2022-10-23T08:02:12;11.00;99.90
60473;DHT22;46318;52.716;6.444;2022-10-23T08:04:39;11.00;99.90
60473;DHT22;46318;52.716;6.444;2022-10-23T08:07:05;11.00;99.90
60473;DHT22;46318;52.716;6.444;2022-10-23T08:09:31;11.10;99.90
60473;DHT22;46318;52.716;6.444;2022-10-23T08:11:59;11.10;99.90
60473;DHT22;46318;52.716;6.444;2022-10-23T08:14:25;11.10;99.90
60473;DHT22;46318;52.716;6.444;2022-10-23T08:16:51;11.10;99.90
60473;DHT22;46318;52.716;6.444;2022-10-23T08:19:17;11.20;99.90
60473;DHT22;46318;52.716;6.444;2022-10-23T08:21:43;11.20;99.90
60473;DHT22;46318;52.716;6.444;2022-10-23T08:24:10;11.30;99.90
60473;DHT22;46318;52.716;6.444;2022-10-23T08:26:39;11.30;99.90
60473;DHT22;46318;52.716;6.444;2022-10-23T08:29:05;11.30;99.90
60473;DHT22;46318;52.716;6.444;2022-10-23T08:31:30;11.30;99.90
60473;DHT22;46318;52.716;6.444;2022-10-23T08:33:56;11.40;99.90
60473;DHT22;46318;52.716;6.444;2022-10-23T08:36:27;11.40;99.90
60473;DHT22;46318;52.716;6.444;2022-10-23T08:38:55;11.50;99.90
60473;DHT22;46318;52.716;6.444;2022-10-23T08:41:31;11.50;99.90
60473;DHT22;46318;52.716;6.444;2022-10-23T08:47:04;11.60;99.90
60473;DHT22;46318;52.716;6.444;2022-10-23T08:57:23;11.90;99.90
60473;DHT22;46318;52.716;6.444;2022-10-23T09:00:06;11.90;99.90
60473;DHT22;46318;52.716;6.444;2022-10-23T09:02:39;12.00;99.90
60473;DHT22;46318;52.716;6.444;2022-10-23T09:05:14;12.00;99.90
60473;DHT22;46318;52.716;6.444;2022-10-23T09:08:18;12.10;99.90
60473;DHT22;46318;52.716;6.444;2022-10-23T09:11:07;12.10;99.90
60473;DHT22;46318;52.716;6.444;2022-10-23T09:17:13;12.20;99.90
60473;DHT22;46318;52.716;6.444;2022-10-23T09:19:45;12.30;99.90
60473;DHT22;46318;52.716;6.444;2022-10-23T09:22:11;12.30;99.90
60473;DHT22;46318;52.716;6.444;2022-10-23T09:24:41;12.30;99.90
60473;DHT22;46318;52.716;6.444;2022-10-23T09:27:18;12.40;99.90
60473;DHT22;46318;52.716;6.444;2022-10-23T09:29:51;12.40;99.90
60473;DHT22;46318;52.716;6.444;2022-10-23T09:32:19;12.50;99.90
60473;DHT22;46318;52.716;6.444;2022-10-23T09:34:53;12.50;99.90
60473;DHT22;46318;52.716;6.444;2022-10-23T09:37:22;12.60;99.90
60473;DHT22;46318;52.716;6.444;2022-10-23T09:40:24;12.60;99.90
60473;DHT22;46318;52.716;6.444;2022-10-23T09:42:52;12.70;99.90
60473;DHT22;46318;52.716;6.444;2022-10-23T09:45:31;12.70;99.90
60473;DHT22;46318;52.716;6.444;2022-10-23T09:48:16;12.80;99.90
60473;DHT22;46318;52.716;6.444;2022-10-23T09:51:14;12.80;99.90
60473;DHT22;46318;52.716;6.444;2022-10-23T09:53:55;12.80;99.90
60473;DHT22;46318;52.716;6.444;2022-10-23T10:01:28;13.00;99.90
60473;DHT22;46318;52.716;6.444;2022-10-23T10:04:00;13.00;99.90
60473;DHT22;46318;52.716;6.444;2022-10-23T10:06:29;13.10;99.90
60473;DHT22;46318;52.716;6.444;2022-10-23T10:08:58;13.10;99.90
60473;DHT22;46318;52.716;6.444;2022-10-23T10:11:36;13.20;99.90
60473;DHT22;46318;52.716;6.444;2022-10-23T10:25:42;13.50;99.90
60473;DHT22;46318;52.716;6.444;2022-10-23T10:43:21;13.90;99.90
60473;DHT22;46318;52.716;6.444;2022-10-23T10:46:23;13.90;99.90
60473;DHT22;46318;52.716;6.444;2022-10-23T10:49:11;13.90;99.90
60473;DHT22;46318;52.716;6.444;2022-10-23T10:55:13;13.90;99.90
60473;DHT22;46318;52.716;6.444;2022-10-23T10:58:01;14.00;99.90
60473;DHT22;46318;52.716;6.444;2022-10-23T11:00:32;14.00;99.90
60473;DHT22;46318;52.716;6.444;2022-10-23T11:05:45;14.00;99.90
60473;DHT22;46318;52.716;6.444;2022-10-23T11:08:18;14.10;99.90
60473;DHT22;46318;52.716;6.444;2022-10-23T11:10:50;14.10;99.90
60473;DHT22;46318;52.716;6.444;2022-10-23T11:13:26;14.10;99.90
60473;DHT22;46318;52.716;6.444;2022-10-23T11:15:56;14.10;99.90
60473;DHT22;46318;52.716;6.444;2022-10-23T11:18:27;14.10;99.90
60473;DHT22;46318;52.716;6.444;2022-10-23T11:21:11;14.10;99.90
60473;DHT22;46318;52.716;6.444;2022-10-23T11:24:05;14.20;99.90
60473;DHT22;46318;52.716;6.444;2022-10-23T11:38:19;14.30;99.90
60473;DHT22;46318;52.716;6.444;2022-10-23T11:40:52;14.30;99.90
60473;DHT22;46318;52.716;6.444;2022-10-23T11:48:53;14.50;99.90
60473;DHT22;46318;52.716;6.444;2022-10-23T11:51:35;14.40;99.90
60473;DHT22;46318;52.716;6.444;2022-10-23T11:59:25;14.50;99.90
60473;DHT22;46318;52.716;6.444;2022-10-23T12:01:54;14.50;99.90
60473;DHT22;46318;52.716;6.444;2022-10-23T12:04:29;14.60;99.90
60473;DHT22;46318;52.716;6.444;2022-10-23T12:07:21;14.60;99.90
60473;DHT22;46318;52.716;6.444;2022-10-23T12:09:54;14.60;99.90
60473;DHT22;46318;52.716;6.444;2022-10-23T12:12:36;14.60;99.90
60473;DHT22;46318;52.716;6.444;2022-10-23T12:17:43;14.70;99.90
60473;DHT22;46318;52.716;6.444;2022-10-23T12:28:53;14.80;99.90
60473;DHT22;46318;52.716;6.444;2022-10-23T12:31:50;14.80;99.90
60473;DHT22;46318;52.716;6.444;2022-10-23T12:34:50;14.80;99.90
60473;DHT22;46318;52.716;6.444;2022-10-23T12:40:11;14.80;99.90
60473;DHT22;46318;52.716;6.444;2022-10-23T12:42:37;14.80;99.90
60473;DHT22;46318;52.716;6.444;2022-10-23T12:47:44;14.90;99.90
60473;DHT22;46318;52.716;6.444;2022-10-23T12:50:22;14.90;99.90
60473;DHT22;46318;52.716;6.444;2022-10-23T12:52:53;14.90;99.90
60473;DHT22;46318;52.716;6.444;2022-10-23T12:55:29;14.90;99.90
60473;DHT22;46318;52.716;6.444;2022-10-23T12:57:55;14.90;99.90
60473;DHT22;46318;52.716;6.444;2022-10-23T13:00:23;15.00;99.90
60473;DHT22;46318;52.716;6.444;2022-10-23T13:03:00;15.00;99.90
60473;DHT22;46318;52.716;6.444;2022-10-23T13:05:27;15.00;99.90
60473;DHT22;46318;52.716;6.444;2022-10-23T13:07:54;15.00;99.90
60473;DHT22;46318;52.716;6.444;2022-10-23T13:10:21;15.00;99.90
60473;DHT22;46318;52.716;6.444;2022-10-23T13:12:55;15.00;99.90
60473;DHT22;46318;52.716;6.444;2022-10-23T13:15:22;15.10;99.90
60473;DHT22;46318;52.716;6.444;2022-10-23T13:20:24;15.20;99.90
60473;DHT22;46318;52.716;6.444;2022-10-23T13:25:33;15.20;99.90
60473;DHT22;46318;52.716;6.444;2022-10-23T13:28:10;15.30;99.90
60473;DHT22;46318;52.716;6.444;2022-10-23T13:30:44;15.30;99.90
60473;DHT22;46318;52.716;6.444;2022-10-23T13:33:30;15.30;99.90
60473;DHT22;46318;52.716;6.444;2022-10-23T13:36:03;15.30;99.90
60473;DHT22;46318;52.716;6.444;2022-10-23T13:38:37;15.30;99.90
60473;DHT22;46318;52.716;6.444;2022-10-23T13:41:10;15.30;99.90
60473;DHT22;46318;52.716;6.444;2022-10-23T13:43:38;15.40;99.90
60473;DHT22;46318;52.716;6.444;2022-10-23T13:46:04;15.40;99.90
60473;DHT22;46318;52.716;6.444;2022-10-23T13:48:29;15.40;99.90
60473;DHT22;46318;52.716;6.444;2022-10-23T13:51:09;15.40;99.90
60473;DHT22;46318;52.716;6.444;2022-10-23T13:53:36;15.40;99.90
60473;DHT22;46318;52.716;6.444;2022-10-23T13:56:02;15.40;99.90
60473;DHT22;46318;52.716;6.444;2022-10-23T13:58:28;15.50;99.90
60473;DHT22;46318;52.716;6.444;2022-10-23T14:00:54;15.40;99.90
60473;DHT22;46318;52.716;6.444;2022-10-23T14:03:19;15.50;99.90
60473;DHT22;46318;52.716;6.444;2022-10-23T14:05:49;15.50;99.90
60473;DHT22;46318;52.716;6.444;2022-10-23T14:08:15;15.50;99.90
60473;DHT22;46318;52.716;6.444;2022-10-23T14:10:41;15.50;99.90
60473;DHT22;46318;52.716;6.444;2022-10-23T14:13:07;15.50;99.90
60473;DHT22;46318;52.716;6.444;2022-10-23T14:15:33;15.50;99.90
60473;DHT22;46318;52.716;6.444;2022-10-23T14:17:59;15.50;99.90
60473;DHT22;46318;52.716;6.444;2022-10-23T14:20:24;15.60;99.90
60473;DHT22;46318;52.716;6.444;2022-10-23T14:22:50;15.60;99.90
60473;DHT22;46318;52.716;6.444;2022-10-23T14:25:16;15.60;99.90
60473;DHT22;46318;52.716;6.444;2022-10-23T14:27:43;15.60;99.90
60473;DHT22;46318;52.716;6.444;2022-10-23T14:30:09;15.60;99.90
60473;DHT22;46318;52.716;6.444;2022-10-23T14:32:35;15.60;99.90
60473;DHT22;46318;52.716;6.444;2022-10-23T14:35:01;15.60;99.90
60473;DHT22;46318;52.716;6.444;2022-10-23T14:37:29;15.70;99.90
60473;DHT22;46318;52.716;6.444;2022-10-23T14:39:56;15.70;99.90
60473;DHT22;46318;52.716;6.444;2022-10-23T14:42:22;15.70;99.90
60473;DHT22;46318;52.716;6.444;2022-10-23T14:44:48;15.70;99.90
60473;DHT22;46318;52.716;6.444;2022-10-23T14:47:15;15.70;99.90
60473;DHT22;46318;52.716;6.444;2022-10-23T14:49:45;15.70;99.90
60473;DHT22;46318;52.716;6.444;2022-10-23T14:52:14;15.70;99.90
60473;DHT22;46318;52.716;6.444;2022-10-23T14:54:40;15.80;99.90
60473;DHT22;46318;52.716;6.444;2022-10-23T14:57:06;15.70;99.90
60473;DHT22;46318;52.716;6.444;2022-10-23T14:59:32;15.70;99.90
60473;DHT22;46318;52.716;6.444;2022-10-23T15:01:58;15.80;99.90
60473;DHT22;46318;52.716;6.444;2022-10-23T15:04:24;15.80;99.90
60473;DHT22;46318;52.716;6.444;2022-10-23T15:06:50;15.80;99.90
60473;DHT22;46318;52.716;6.444;2022-10-23T15:09:16;15.80;99.90
60473;DHT22;46318;52.716;6.444;2022-10-23T15:11:44;15.80;99.90
60473;DHT22;46318;52.716;6.444;2022-10-23T15:14:10;15.80;99.90
60473;DHT22;46318;52.716;6.444;2022-10-23T15:16:37;15.80;99.90
60473;DHT22;46318;52.716;6.444;2022-10-23T15:19:14;15.80;99.90
60473;DHT22;46318;52.716;6.444;2022-10-23T15:21:41;15.90;99.90
60473;DHT22;46318;52.716;6.444;2022-10-23T15:24:07;15.90;99.90
60473;DHT22;46318;52.716;6.444;2022-10-23T15:26:33;15.90;99.90
60473;DHT22;46318;52.716;6.444;2022-10-23T15:29:00;15.90;99.90
60473;DHT22;46318;52.716;6.444;2022-10-23T15:33:58;15.90;99.90
60473;DHT22;46318;52.716;6.444;2022-10-23T15:36:25;15.90;99.90
60473;DHT22;46318;52.716;6.444;2022-10-23T15:38:51;15.90;99.90
60473;DHT22;46318;52.716;6.444;2022-10-23T15:41:22;15.90;99.90
60473;DHT22;46318;52.716;6.444;2022-10-23T15:43:52;15.90;99.90
60473;DHT22;46318;52.716;6.444;2022-10-23T15:46:18;15.90;99.90
60473;DHT22;46318;52.716;6.444;2022-10-23T15:48:43;15.90;99.90
60473;DHT22;46318;52.716;6.444;2022-10-23T15:51:09;15.90;99.90
60473;DHT22;46318;52.716;6.444;2022-10-23T15:53:35;15.80;99.90
60473;DHT22;46318;52.716;6.444;2022-10-23T15:56:01;15.80;99.90
60473;DHT22;46318;52.716;6.444;2022-10-23T15:58:26;15.80;99.90
60473;DHT22;46318;52.716;6.444;2022-10-23T16:00:52;15.80;99.90
60473;DHT22;46318;52.716;6.444;2022-10-23T16:03:18;15.80;99.90
60473;DHT22;46318;52.716;6.444;2022-10-23T16:05:43;15.80;99.90
60473;DHT22;46318;52.716;6.444;2022-10-23T16:08:09;15.80;99.90
60473;DHT22;46318;52.716;6.444;2022-10-23T16:10:40;15.80;99.90
60473;DHT22;46318;52.716;6.444;2022-10-23T16:13:07;15.80;99.90
60473;DHT22;46318;52.716;6.444;2022-10-23T16:15:36;15.80;99.90
60473;DHT22;46318;52.716;6.444;2022-10-23T16:18:03;15.80;99.90
60473;DHT22;46318;52.716;6.444;2022-10-23T16:20:28;15.80;99.90
60473;DHT22;46318;52.716;6.444;2022-10-23T16:22:54;15.70;99.90
60473;DHT22;46318;52.716;6.444;2022-10-23T16:25:20;15.80;99.90
60473;DHT22;46318;52.716;6.444;2022-10-23T16:27:46;15.80;99.90
60473;DHT22;46318;52.716;6.444;2022-10-23T16:30:13;15.70;99.90
60473;DHT22;46318;52.716;6.444;2022-10-23T16:32:39;15.70;99.90
60473;DHT22;46318;52.716;6.444;2022-10-23T16:35:06;15.70;99.90
60473;DHT22;46318;52.716;6.444;2022-10-23T16:37:32;15.70;99.90
60473;DHT22;46318;52.716;6.444;2022-10-23T16:39:58;15.70;99.90
60473;DHT22;46318;52.716;6.444;2022-10-23T16:42:25;15.70;99.90
60473;DHT22;46318;52.716;6.444;2022-10-23T16:44:51;15.70;99.90
60473;DHT22;46318;52.716;6.444;2022-10-23T16:47:16;15.70;99.90
60473;DHT22;46318;52.716;6.444;2022-10-23T16:49:42;15.70;99.90
60473;DHT22;46318;52.716;6.444;2022-10-23T16:52:08;15.70;99.90
60473;DHT22;46318;52.716;6.444;2022-10-23T16:54:34;15.70;99.90
60473;DHT22;46318;52.716;6.444;2022-10-23T16:57:00;15.80;99.90
60473;DHT22;46318;52.716;6.444;2022-10-23T16:59:26;15.70;99.90
60473;DHT22;46318;52.716;6.444;2022-10-23T17:01:51;15.70;99.90
60473;DHT22;46318;52.716;6.444;2022-10-23T17:04:18;15.70;99.90
60473;DHT22;46318;52.716;6.444;2022-10-23T17:06:44;15.70;99.90
60473;DHT22;46318;52.716;6.444;2022-10-23T17:09:10;15.80;99.90
60473;DHT22;46318;52.716;6.444;2022-10-23T17:11:38;15.70;99.90
60473;DHT22;46318;52.716;6.444;2022-10-23T17:14:07;15.70;99.90
60473;DHT22;46318;52.716;6.444;2022-10-23T17:16:39;15.70;99.90
60473;DHT22;46318;52.716;6.444;2022-10-23T17:19:07;15.80;99.90
60473;DHT22;46318;52.716;6.444;2022-10-23T17:21:36;15.80;99.90
60473;DHT22;46318;52.716;6.444;2022-10-23T17:24:04;15.70;99.90
60473;DHT22;46318;52.716;6.444;2022-10-23T17:26:30;15.70;99.90
60473;DHT22;46318;52.716;6.444;2022-10-23T17:28:57;15.80;99.90
60473;DHT22;46318;52.716;6.444;2022-10-23T17:31:27;15.70;99.90
60473;DHT22;46318;52.716;6.444;2022-10-23T17:34:00;15.70;99.90
60473;DHT22;46318;52.716;6.444;2022-10-23T17:36:30;15.80;99.90
60473;DHT22;46318;52.716;6.444;2022-10-23T17:38:58;15.70;99.90
60473;DHT22;46318;52.716;6.444;2022-10-23T17:41:24;15.70;99.90
60473;DHT22;46318;52.716;6.444;2022-10-23T17:43:54;15.70;99.90
60473;DHT22;46318;52.716;6.444;2022-10-23T17:46:20;15.70;99.90
60473;DHT22;46318;52.716;6.444;2022-10-23T17:48:46;15.70;99.90
60473;DHT22;46318;52.716;6.444;2022-10-23T17:51:14;15.70;99.90
60473;DHT22;46318;52.716;6.444;2022-10-23T17:53:46;15.70;99.90
60473;DHT22;46318;52.716;6.444;2022-10-23T17:56:16;15.70;99.90
60473;DHT22;46318;52.716;6.444;2022-10-23T17:58:51;15.70;99.90
60473;DHT22;46318;52.716;6.444;2022-10-23T18:01:21;15.70;99.90